Time;durP1;ratioP1;P1;durP2;ratioP2;P2;SDS_P1;SDS_P2;PMS_P1;PMS_P2;Temp;Humidity;BMP_temperature;BMP_pressure;BME280_temperature;BME280_humidity;BME280_pressure;Samples;Min_cycle;Max_cycle;Signal;HPM_P1;HPM_P2
2024/01/08 00:02:25;;;;;;;;;;;-1.00;99.90;;;;;;5066716;28;19985;-67
2024/01/08 00:04:52;;;;;;;;;;;-1.00;99.90;;;;;;5067143;28;19947;-67
2024/01/08 00:07:18;;;;;;;;;;;-1.00;99.90;;;;;;5066952;28;19932;-67
2024/01/08 00:09:45;;;;;;;;;;;-1.00;99.90;;;;;;5066814;28;19983;-67
2024/01/08 00:12:13;;;;;;;;;;;-1.10;99.90;;;;;;5067399;28;19925;-67
2024/01/08 00:14:40;;;;;;;;;;;-1.10;99.90;;;;;;5066430;28;19940;-67
2024/01/08 00:17:06;;;;;;;;;;;-1.20;99.90;;;;;;5067066;28;19940;-67
2024/01/08 00:19:33;;;;;;;;;;;-1.20;99.90;;;;;;5066577;28;19928;-67
2024/01/08 00:21:59;;;;;;;;;;;-1.10;99.90;;;;;;5066460;28;19967;-67
2024/01/08 00:24:26;;;;;;;;;;;-1.10;99.90;;;;;;5066873;28;19924;-67
2024/01/08 00:26:52;;;;;;;;;;;-1.20;99.90;;;;;;5066670;28;20413;-67
2024/01/08 00:29:20;;;;;;;;;;;-1.20;99.90;;;;;;5067167;28;19933;-67
2024/01/08 00:31:47;;;;;;;;;;;-1.20;99.90;;;;;;5066371;28;19925;-67
2024/01/08 00:34:13;;;;;;;;;;;-1.20;99.90;;;;;;5066511;28;20402;-67
2024/01/08 00:36:40;;;;;;;;;;;-1.20;99.90;;;;;;5066536;28;19932;-67
2024/01/08 00:39:09;;;;;;;;;;;-1.20;99.90;;;;;;5067142;28;19925;-67
2024/01/08 00:41:35;;;;;;;;;;;-1.20;99.90;;;;;;5066602;28;20011;-67
2024/01/08 00:44:02;;;;;;;;;;;-1.20;99.90;;;;;;5067023;28;19983;-67
2024/01/08 00:46:29;;;;;;;;;;;-1.20;99.90;;;;;;5065281;28;19929;-67
2024/01/08 00:48:56;;;;;;;;;;;-1.20;99.90;;;;;;5067452;28;20021;-67
2024/01/08 00:51:23;;;;;;;;;;;-1.30;99.90;;;;;;5067180;28;20003;-67
2024/01/08 00:53:49;;;;;;;;;;;-1.30;99.90;;;;;;5066879;28;19929;-67
2024/01/08 00:56:16;;;;;;;;;;;-1.30;99.90;;;;;;5066171;28;19933;-67
2024/01/08 00:58:43;;;;;;;;;;;-1.30;99.90;;;;;;5067001;28;19932;-67
2024/01/08 01:01:11;;;;;;;;;;;-1.30;99.90;;;;;;5066136;28;19928;-67
2024/01/08 01:03:38;;;;;;;;;;;-1.30;99.90;;;;;;5066901;28;19932;-67
2024/01/08 01:06:05;;;;;;;;;;;-1.30;99.90;;;;;;5066939;28;19932;-67
2024/01/08 01:08:31;;;;;;;;;;;-1.40;99.90;;;;;;5067443;28;19954;-67
2024/01/08 01:10:58;;;;;;;;;;;-1.30;99.90;;;;;;5066240;28;19924;-67
2024/01/08 01:13:25;;;;;;;;;;;-1.40;99.90;;;;;;5067062;28;19933;-67
2024/01/08 01:15:52;;;;;;;;;;;-1.40;99.90;;;;;;5066734;28;19955;-67
2024/01/08 01:18:18;;;;;;;;;;;-1.40;99.90;;;;;;5067022;28;19929;-67
2024/01/08 01:20:46;;;;;;;;;;;-1.40;99.90;;;;;;5066688;28;20393;-67
2024/01/08 01:23:13;;;;;;;;;;;-1.40;99.90;;;;;;5066883;28;19924;-67
2024/01/08 01:25:38;;;;;;;;;;;-1.40;99.90;;;;;;5067173;28;19928;-67
2024/01/08 01:28:05;;;;;;;;;;;-1.40;99.90;;;;;;5067221;28;19935;-67
2024/01/08 01:30:31;;;;;;;;;;;-1.40;99.90;;;;;;5066046;28;19925;-67
2024/01/08 01:32:58;;;;;;;;;;;-1.50;99.90;;;;;;5066710;28;19993;-67
2024/01/08 01:35:24;;;;;;;;;;;-1.40;99.90;;;;;;5066442;28;19933;-67
2024/01/08 01:37:52;;;;;;;;;;;-1.50;99.90;;;;;;5066769;28;19994;-67
2024/01/08 01:40:19;;;;;;;;;;;-1.50;99.90;;;;;;5066030;28;19932;-67
2024/01/08 01:42:48;;;;;;;;;;;-1.50;99.90;;;;;;5067076;28;19932;-67
2024/01/08 01:45:15;;;;;;;;;;;-1.40;99.90;;;;;;5066102;28;19924;-67
2024/01/08 01:47:42;;;;;;;;;;;-1.40;99.90;;;;;;5066829;28;19936;-67
2024/01/08 01:50:09;;;;;;;;;;;-1.40;99.90;;;;;;5065584;28;19925;-67
2024/01/08 01:52:35;;;;;;;;;;;-1.50;99.90;;;;;;5066306;28;20379;-67
2024/01/08 01:55:03;;;;;;;;;;;-1.40;99.90;;;;;;5066367;28;20276;-67
2024/01/08 01:57:30;;;;;;;;;;;-1.50;99.90;;;;;;5068425;28;19929;-67
2024/01/08 01:59:56;;;;;;;;;;;-1.50;99.90;;;;;;5069493;28;19924;-67
2024/01/08 02:02:27;;;;;;;;;;;-1.50;99.90;;;;;;5069204;28;19932;-67
2024/01/08 02:04:55;;;;;;;;;;;-1.50;99.90;;;;;;5069652;28;20026;-67
2024/01/08 02:07:21;;;;;;;;;;;-1.50;99.90;;;;;;5068361;28;19932;-67
2024/01/08 02:09:48;;;;;;;;;;;-1.50;99.90;;;;;;5069480;28;19924;-68
2024/01/08 02:12:17;;;;;;;;;;;-1.50;99.90;;;;;;5069679;28;19925;-67
2024/01/08 02:14:44;;;;;;;;;;;-1.50;99.90;;;;;;5069700;28;20318;-67
2024/01/08 02:17:10;;;;;;;;;;;-1.50;99.90;;;;;;5069066;28;20348;-67
2024/01/08 02:19:37;;;;;;;;;;;-1.50;99.90;;;;;;5068479;28;19973;-67
2024/01/08 02:22:03;;;;;;;;;;;-1.50;99.90;;;;;;5069207;28;19928;-67
2024/01/08 02:24:31;;;;;;;;;;;-1.50;99.90;;;;;;5069551;28;19932;-67
2024/01/08 02:26:59;;;;;;;;;;;-1.40;99.90;;;;;;5068842;28;19924;-67
2024/01/08 02:29:27;;;;;;;;;;;-1.40;99.90;;;;;;5068959;28;20341;-67
2024/01/08 02:31:53;;;;;;;;;;;-1.50;99.90;;;;;;5068434;28;19929;-67
2024/01/08 02:34:19;;;;;;;;;;;-1.50;99.90;;;;;;5069032;28;19933;-67
2024/01/08 02:36:46;;;;;;;;;;;-1.50;99.90;;;;;;5069760;28;19986;-67
2024/01/08 02:39:12;;;;;;;;;;;-1.60;99.90;;;;;;5069097;28;19932;-67
2024/01/08 02:41:40;;;;;;;;;;;-1.50;99.90;;;;;;5068610;28;20366;-67
2024/01/08 02:44:07;;;;;;;;;;;-1.50;99.90;;;;;;5068929;28;19947;-67
2024/01/08 02:46:33;;;;;;;;;;;-1.50;99.90;;;;;;5068506;28;19929;-67
2024/01/08 02:49:00;;;;;;;;;;;-1.50;99.90;;;;;;5068679;28;19966;-67
2024/01/08 02:51:26;;;;;;;;;;;-1.50;99.90;;;;;;5068901;28;19925;-67
2024/01/08 02:53:53;;;;;;;;;;;-1.50;99.90;;;;;;5068552;28;19958;-67
2024/01/08 02:56:19;;;;;;;;;;;-1.60;99.90;;;;;;5068763;28;20398;-67
2024/01/08 02:58:48;;;;;;;;;;;-1.50;99.90;;;;;;5068663;28;20027;-67
2024/01/08 03:01:15;;;;;;;;;;;-1.50;99.90;;;;;;5067865;28;19977;-67
2024/01/08 03:03:41;;;;;;;;;;;-1.60;99.90;;;;;;5068336;28;19994;-67
2024/01/08 03:06:08;;;;;;;;;;;-1.60;99.90;;;;;;5068360;28;20298;-67
2024/01/08 03:08:34;;;;;;;;;;;-1.50;99.90;;;;;;5067935;28;19925;-67
2024/01/08 03:11:01;;;;;;;;;;;-1.50;99.90;;;;;;5068249;28;20540;-67
2024/01/08 03:13:27;;;;;;;;;;;-1.60;99.90;;;;;;5067512;28;19925;-67
2024/01/08 03:15:55;;;;;;;;;;;-1.50;99.90;;;;;;5067000;28;19978;-67
2024/01/08 03:18:22;;;;;;;;;;;-1.60;99.90;;;;;;5068329;28;19986;-67
2024/01/08 03:20:48;;;;;;;;;;;-1.60;99.90;;;;;;5068132;28;19933;-67
2024/01/08 03:23:15;;;;;;;;;;;-1.50;99.90;;;;;;5067551;28;19951;-67
2024/01/08 03:25:41;;;;;;;;;;;-1.60;99.90;;;;;;5068080;28;20444;-67
2024/01/08 03:28:07;;;;;;;;;;;-1.60;99.90;;;;;;5068937;28;19936;-67
2024/01/08 03:30:34;;;;;;;;;;;-2.20;99.90;;;;;;5066860;28;19936;-67
2024/01/08 03:33:02;;;;;;;;;;;-1.60;99.90;;;;;;5067913;28;19928;-67
2024/01/08 03:35:28;;;;;;;;;;;-1.60;99.90;;;;;;5067924;28;19924;-67
2024/01/08 03:37:55;;;;;;;;;;;-1.60;99.90;;;;;;5067876;28;19955;-67
2024/01/08 03:40:21;;;;;;;;;;;-1.60;99.90;;;;;;5068371;28;19932;-67
2024/01/08 03:42:48;;;;;;;;;;;-1.60;99.90;;;;;;5067833;28;20995;-67
2024/01/08 03:45:14;;;;;;;;;;;-2.00;99.90;;;;;;5068162;28;19925;-67
2024/01/08 03:47:41;;;;;;;;;;;-1.70;99.90;;;;;;5068712;28;19936;-67
2024/01/08 03:50:09;;;;;;;;;;;-1.70;99.90;;;;;;5066556;28;19924;-67
2024/01/08 03:52:36;;;;;;;;;;;-1.60;99.90;;;;;;5067810;28;19933;-67
2024/01/08 03:55:02;;;;;;;;;;;-1.60;99.90;;;;;;5067200;28;19986;-67
2024/01/08 03:57:29;;;;;;;;;;;-1.70;99.90;;;;;;5067109;28;19978;-67
2024/01/08 03:59:55;;;;;;;;;;;-1.70;99.90;;;;;;5067253;28;19997;-67
2024/01/08 04:02:21;;;;;;;;;;;-1.70;99.90;;;;;;5067564;28;19932;-67
2024/01/08 04:04:48;;;;;;;;;;;-1.70;99.90;;;;;;5067779;28;19925;-69
2024/01/08 04:07:16;;;;;;;;;;;-1.70;99.90;;;;;;5067479;28;19982;-67
2024/01/08 04:09:42;;;;;;;;;;;-1.60;99.90;;;;;;5067639;28;19928;-67
2024/01/08 04:12:09;;;;;;;;;;;-1.70;99.90;;;;;;5067324;28;19959;-67
2024/01/08 04:14:37;;;;;;;;;;;-1.70;99.90;;;;;;5067560;28;19931;-67
2024/01/08 04:17:04;;;;;;;;;;;-1.70;99.90;;;;;;5067375;28;20019;-67
2024/01/08 04:19:30;;;;;;;;;;;-1.70;99.90;;;;;;5068003;28;19929;-67
2024/01/08 04:21:56;;;;;;;;;;;-1.70;99.90;;;;;;5067650;28;19925;-67
2024/01/08 04:24:25;;;;;;;;;;;-1.70;99.90;;;;;;5066854;28;19932;-67
2024/01/08 04:26:51;;;;;;;;;;;-1.70;99.90;;;;;;5065592;28;19931;-67
2024/01/08 04:29:18;;;;;;;;;;;-1.70;99.90;;;;;;5067552;28;19978;-67
2024/01/08 04:31:44;;;;;;;;;;;-1.70;99.90;;;;;;5065755;28;19932;-67
2024/01/08 04:34:11;;;;;;;;;;;-1.80;99.90;;;;;;5066528;28;19928;-67
2024/01/08 04:36:40;;;;;;;;;;;-1.80;99.90;;;;;;5066919;28;19932;-67
2024/01/08 04:39:06;;;;;;;;;;;-1.70;99.90;;;;;;5066937;28;19932;-67
2024/01/08 04:41:34;;;;;;;;;;;-1.70;99.90;;;;;;5066662;28;19932;-67
2024/01/08 04:44:00;;;;;;;;;;;-1.70;99.90;;;;;;5066797;28;20390;-67
2024/01/08 04:46:27;;;;;;;;;;;-1.70;99.90;;;;;;5066436;28;19928;-67
2024/01/08 04:48:53;;;;;;;;;;;-1.70;99.90;;;;;;5067278;28;19933;-67
2024/01/08 04:51:20;;;;;;;;;;;-1.60;99.90;;;;;;5066268;28;20042;-67
2024/01/08 04:53:47;;;;;;;;;;;-1.60;99.90;;;;;;5066406;28;20297;-67
2024/01/08 04:56:19;;;;;;;;;;;-1.60;99.90;;;;;;5067038;28;19928;-67
2024/01/08 04:58:47;;;;;;;;;;;-1.60;99.90;;;;;;5066713;28;19940;-67
2024/01/08 05:01:13;;;;;;;;;;;-1.50;99.90;;;;;;5066014;28;19934;-67
2024/01/08 05:03:40;;;;;;;;;;;-1.50;99.90;;;;;;5066913;28;20402;-67
2024/01/08 05:06:06;;;;;;;;;;;-1.60;99.90;;;;;;5065750;28;19924;-67
2024/01/08 05:08:33;;;;;;;;;;;-1.60;99.90;;;;;;5067046;28;19986;-67
2024/01/08 05:10:59;;;;;;;;;;;-1.60;99.90;;;;;;5066344;28;19929;-67
2024/01/08 05:13:26;;;;;;;;;;;-1.60;99.90;;;;;;5067359;28;19954;-67
2024/01/08 05:15:54;;;;;;;;;;;-1.60;99.90;;;;;;5066324;28;19968;-67
2024/01/08 05:18:20;;;;;;;;;;;-1.60;99.90;;;;;;5066935;28;20383;-67
2024/01/08 05:20:48;;;;;;;;;;;-1.60;99.90;;;;;;5066328;28;19951;-67
2024/01/08 05:23:14;;;;;;;;;;;-1.60;99.90;;;;;;5067195;28;19986;-67
2024/01/08 05:25:41;;;;;;;;;;;-1.60;99.90;;;;;;5066614;28;20383;-67
2024/01/08 05:28:08;;;;;;;;;;;-1.60;99.90;;;;;;5066180;28;19924;-67
2024/01/08 05:30:36;;;;;;;;;;;-1.70;99.90;;;;;;5066188;28;19951;-67
2024/01/08 05:33:04;;;;;;;;;;;-1.60;99.90;;;;;;5069856;28;19932;-67
2024/01/08 05:35:31;;;;;;;;;;;-1.60;99.90;;;;;;5070210;28;19929;-67
2024/01/08 05:37:57;;;;;;;;;;;-1.70;99.90;;;;;;5070091;28;20283;-67
2024/01/08 05:40:24;;;;;;;;;;;-1.60;99.90;;;;;;5070113;28;19933;-67
2024/01/08 05:42:50;;;;;;;;;;;-1.50;99.90;;;;;;5070185;28;19928;-67
2024/01/08 05:45:17;;;;;;;;;;;-1.60;99.90;;;;;;5070239;28;19932;-67
2024/01/08 05:47:44;;;;;;;;;;;-1.50;99.90;;;;;;5070094;28;19947;-67
2024/01/08 05:50:12;;;;;;;;;;;-1.50;99.90;;;;;;5069265;28;19925;-67
2024/01/08 05:52:38;;;;;;;;;;;-1.60;99.90;;;;;;5070724;28;19940;-67
2024/01/08 05:55:05;;;;;;;;;;;-1.60;99.90;;;;;;5069676;28;19955;-67
2024/01/08 05:57:32;;;;;;;;;;;-1.50;99.90;;;;;;5070414;28;20310;-67
2024/01/08 05:59:59;;;;;;;;;;;-1.60;99.90;;;;;;5069017;28;19932;-67
2024/01/08 06:02:25;;;;;;;;;;;-1.50;99.90;;;;;;5069102;28;19933;-67
2024/01/08 06:04:51;;;;;;;;;;;-1.50;99.90;;;;;;5070444;28;20325;-67
2024/01/08 06:07:19;;;;;;;;;;;-1.50;99.90;;;;;;5069298;28;19932;-67
2024/01/08 06:09:46;;;;;;;;;;;-1.50;99.90;;;;;;5069825;28;20382;-67
2024/01/08 06:12:13;;;;;;;;;;;-1.50;99.90;;;;;;5069022;28;20367;-67
2024/01/08 06:14:41;;;;;;;;;;;-1.50;99.90;;;;;;5069741;28;19936;-66
2024/01/08 06:17:08;;;;;;;;;;;-1.60;99.90;;;;;;5069156;28;19947;-66
2024/01/08 06:19:34;;;;;;;;;;;-1.60;99.90;;;;;;5069816;28;19932;-67
2024/01/08 06:22:01;;;;;;;;;;;-1.60;99.90;;;;;;5069332;28;19924;-67
2024/01/08 06:24:28;;;;;;;;;;;-1.60;99.90;;;;;;5069097;28;19937;-66
2024/01/08 06:26:56;;;;;;;;;;;-1.60;99.90;;;;;;5069555;28;19924;-67
2024/01/08 06:29:22;;;;;;;;;;;-1.60;99.90;;;;;;5069040;28;21196;-67
2024/01/08 06:31:49;;;;;;;;;;;-1.60;99.90;;;;;;5069362;28;19945;-67
2024/01/08 06:34:15;;;;;;;;;;;-1.60;99.90;;;;;;5069090;28;19932;-67
2024/01/08 06:36:42;;;;;;;;;;;-1.60;99.90;;;;;;5067388;28;19932;-67
2024/01/08 06:39:09;;;;;;;;;;;-1.60;99.90;;;;;;5068439;28;19932;-67
2024/01/08 06:41:37;;;;;;;;;;;-1.50;99.90;;;;;;5067713;28;19933;-67
2024/01/08 06:44:04;;;;;;;;;;;-1.60;99.90;;;;;;5068821;28;20417;-67
2024/01/08 06:46:31;;;;;;;;;;;-1.60;99.90;;;;;;5067140;28;19974;-67
2024/01/08 06:48:58;;;;;;;;;;;-1.60;99.90;;;;;;5067838;28;19924;-67
2024/01/08 06:51:25;;;;;;;;;;;-1.70;99.90;;;;;;5067593;28;20026;-67
2024/01/08 06:53:51;;;;;;;;;;;-1.70;99.90;;;;;;5069498;28;20360;-67
2024/01/08 06:56:18;;;;;;;;;;;-1.70;99.90;;;;;;5067947;28;20821;-67
2024/01/08 06:58:45;;;;;;;;;;;-1.70;99.90;;;;;;5067173;28;19974;-67
2024/01/08 07:01:12;;;;;;;;;;;-1.80;99.90;;;;;;5067103;28;19925;-66
2024/01/08 07:03:38;;;;;;;;;;;-1.60;99.90;;;;;;5067494;28;19929;-66
2024/01/08 07:06:05;;;;;;;;;;;-1.60;99.90;;;;;;5068038;28;19933;-66
2024/01/08 07:08:32;;;;;;;;;;;-1.30;99.90;;;;;;5066546;28;20442;-66
2024/01/08 07:10:58;;;;;;;;;;;-1.60;99.90;;;;;;5063948;28;19985;-66
2024/01/08 07:13:25;;;;;;;;;;;-1.60;99.90;;;;;;5063074;28;19983;-66
2024/01/08 07:15:53;;;;;;;;;;;-1.60;99.90;;;;;;5067594;28;19925;-66
2024/01/08 07:18:19;;;;;;;;;;;-1.60;99.90;;;;;;5067367;28;19933;-66
2024/01/08 07:20:46;;;;;;;;;;;-1.60;99.90;;;;;;5067198;28;20328;-66
2024/01/08 07:23:13;;;;;;;;;;;-1.60;99.90;;;;;;5067568;28;19932;-66
2024/01/08 07:25:40;;;;;;;;;;;-1.60;99.90;;;;;;5067856;28;19933;-66
2024/01/08 07:28:07;;;;;;;;;;;-1.70;99.90;;;;;;5068764;28;20018;-66
2024/01/08 07:30:34;;;;;;;;;;;-1.70;99.90;;;;;;5066816;28;19960;-66
2024/01/08 07:33:02;;;;;;;;;;;-1.60;99.90;;;;;;5067029;28;20413;-66
2024/01/08 07:35:28;;;;;;;;;;;-1.60;99.90;;;;;;5068069;28;19929;-66
2024/01/08 07:37:56;;;;;;;;;;;-1.70;99.90;;;;;;5066823;28;19924;-66
2024/01/08 07:40:24;;;;;;;;;;;-1.70;99.90;;;;;;5066427;28;19932;-66
2024/01/08 07:42:53;;;;;;;;;;;-1.70;99.90;;;;;;5066258;28;19932;-71
2024/01/08 07:45:20;;;;;;;;;;;-1.70;99.90;;;;;;5066926;28;19933;-71
2024/01/08 07:47:47;;;;;;;;;;;-0.30;99.90;;;;;;5066009;28;19936;-71
2024/01/08 07:50:15;;;;;;;;;;;0.90;99.90;;;;;;5066703;28;20367;-67
2024/01/08 07:52:42;;;;;;;;;;;1.50;99.90;;;;;;5066354;28;20066;-67
2024/01/08 07:55:09;;;;;;;;;;;0.90;99.90;;;;;;5065884;28;20017;-66
2024/01/08 07:57:36;;;;;;;;;;;0.20;99.90;;;;;;5066203;28;19928;-66
2024/01/08 08:00:05;;;;;;;;;;;-0.40;99.90;;;;;;5065552;28;19932;-67
2024/01/08 08:02:31;;;;;;;;;;;-0.90;99.90;;;;;;5064722;28;19932;-66
2024/01/08 08:04:58;;;;;;;;;;;-1.30;99.90;;;;;;5065630;28;19928;-66
2024/01/08 08:07:26;;;;;;;;;;;-1.50;99.90;;;;;;5064881;28;19933;-67
2024/01/08 08:09:52;;;;;;;;;;;-1.70;99.90;;;;;;5065439;28;19972;-66
2024/01/08 08:12:19;;;;;;;;;;;-1.90;99.90;;;;;;5066367;28;19940;-66
2024/01/08 08:14:47;;;;;;;;;;;-1.90;99.90;;;;;;5066659;28;19928;-66
2024/01/08 08:17:14;;;;;;;;;;;-2.00;99.90;;;;;;5067106;28;20019;-66
2024/01/08 08:19:41;;;;;;;;;;;-1.90;99.90;;;;;;5066715;28;19928;-66
2024/01/08 08:22:07;;;;;;;;;;;-1.90;99.90;;;;;;5066892;28;19936;-66
2024/01/08 08:24:35;;;;;;;;;;;-1.90;99.90;;;;;;5065751;28;19940;-66
2024/01/08 08:27:02;;;;;;;;;;;-2.00;99.90;;;;;;5066243;28;19925;-67
2024/01/08 08:29:28;;;;;;;;;;;-2.00;99.90;;;;;;5066408;28;19932;-66
2024/01/08 08:31:55;;;;;;;;;;;-2.10;99.90;;;;;;5066479;28;19971;-66
2024/01/08 08:34:22;;;;;;;;;;;-2.10;99.90;;;;;;5065347;28;19994;-67
2024/01/08 08:36:48;;;;;;;;;;;-2.10;99.90;;;;;;5066434;28;20033;-67
2024/01/08 08:39:15;;;;;;;;;;;-2.20;99.90;;;;;;5066264;28;19971;-67
2024/01/08 08:41:43;;;;;;;;;;;-1.60;99.90;;;;;;5066277;28;19924;-67
2024/01/08 08:44:09;;;;;;;;;;;-1.80;99.90;;;;;;5066113;28;19924;-67
2024/01/08 08:46:37;;;;;;;;;;;-1.80;99.90;;;;;;5065435;28;19944;-67
2024/01/08 08:49:03;;;;;;;;;;;-1.60;99.90;;;;;;5065982;28;19932;-68
2024/01/08 08:51:30;;;;;;;;;;;-1.40;99.90;;;;;;5066441;28;19925;-67
2024/01/08 08:53:59;;;;;;;;;;;-1.30;99.90;;;;;;5066186;28;20444;-67
2024/01/08 08:56:26;;;;;;;;;;;-1.20;99.90;;;;;;5066175;28;19932;-67
2024/01/08 08:58:54;;;;;;;;;;;-1.00;99.90;;;;;;5066099;28;19986;-67
2024/01/08 09:01:20;;;;;;;;;;;-0.80;99.90;;;;;;5064954;28;20333;-67
2024/01/08 09:03:47;;;;;;;;;;;-1.10;99.90;;;;;;5065787;28;19936;-67
2024/01/08 09:06:13;;;;;;;;;;;-0.80;99.90;;;;;;5065160;28;19928;-67
2024/01/08 09:08:40;;;;;;;;;;;-0.90;99.90;;;;;;5070291;28;19933;-67
2024/01/08 09:11:08;;;;;;;;;;;-0.90;99.90;;;;;;5070552;28;19924;-66
2024/01/08 09:13:34;;;;;;;;;;;-0.90;99.90;;;;;;5069847;28;20453;-67
2024/01/08 09:16:02;;;;;;;;;;;-0.80;99.90;;;;;;5068843;28;19928;-67
2024/01/08 09:18:29;;;;;;;;;;;-0.70;99.90;;;;;;5069441;28;19982;-67
2024/01/08 09:20:55;;;;;;;;;;;-0.70;99.90;;;;;;5069332;28;19924;-67
2024/01/08 09:23:22;;;;;;;;;;;-0.80;99.90;;;;;;5068977;28;19985;-67
2024/01/08 09:25:48;;;;;;;;;;;-0.80;99.90;;;;;;5069872;28;19978;-68
2024/01/08 09:28:15;;;;;;;;;;;-0.70;99.90;;;;;;5068412;28;19932;-67
2024/01/08 09:30:41;;;;;;;;;;;-0.80;99.90;;;;;;5068371;28;20001;-67
2024/01/08 09:33:09;;;;;;;;;;;-0.90;99.90;;;;;;5068541;28;19928;-67
2024/01/08 09:35:36;;;;;;;;;;;-1.00;99.90;;;;;;5069083;28;21170;-67
2024/01/08 09:38:03;;;;;;;;;;;-1.20;99.90;;;;;;5068326;28;19925;-67
2024/01/08 09:40:29;;;;;;;;;;;-1.00;99.90;;;;;;5068652;28;19934;-64
2024/01/08 09:42:58;;;;;;;;;;;-0.80;99.90;;;;;;5068565;28;20000;-67
2024/01/08 09:45:26;;;;;;;;;;;-0.50;99.90;;;;;;5068783;28;19940;-67
2024/01/08 09:47:53;;;;;;;;;;;-0.20;99.90;;;;;;5068129;28;19936;-67
2024/01/08 09:50:22;;;;;;;;;;;0.10;99.90;;;;;;5069329;28;19940;-67
2024/01/08 09:52:50;;;;;;;;;;;0.20;99.90;;;;;;5069131;28;19928;-67
2024/01/08 09:55:16;;;;;;;;;;;0.10;99.90;;;;;;5069826;28;19933;-68
2024/01/08 09:57:43;;;;;;;;;;;0.10;99.90;;;;;;5068413;28;20341;-65
2024/01/08 10:00:11;;;;;;;;;;;0.20;99.90;;;;;;5067467;28;19932;-65
2024/01/08 10:02:38;;;;;;;;;;;0.30;99.90;;;;;;5067295;28;19984;-67
2024/01/08 10:05:06;;;;;;;;;;;0.30;99.90;;;;;;5067842;28;19932;-68
2024/01/08 10:07:35;;;;;;;;;;;0.20;99.90;;;;;;5067039;28;19924;-65
2024/01/08 10:10:01;;;;;;;;;;;0.30;99.90;;;;;;5068106;28;20018;-67
2024/01/08 10:12:28;;;;;;;;;;;0.50;99.90;;;;;;5068025;28;19929;-68
2024/01/08 10:14:55;;;;;;;;;;;0.70;99.90;;;;;;5068184;28;19940;-67
2024/01/08 10:17:21;;;;;;;;;;;1.00;99.90;;;;;;5067789;28;20016;-67
2024/01/08 10:19:48;;;;;;;;;;;1.30;99.90;;;;;;5067997;28;20416;-68
2024/01/08 10:22:14;;;;;;;;;;;0.80;99.90;;;;;;5068004;28;20387;-68
2024/01/08 10:24:43;;;;;;;;;;;1.90;99.90;;;;;;5067937;28;19924;-68
2024/01/08 10:27:10;;;;;;;;;;;1.80;99.90;;;;;;5066543;28;19979;-68
2024/01/08 10:29:37;;;;;;;;;;;1.60;99.90;;;;;;5067610;28;19932;-68
2024/01/08 10:32:04;;;;;;;;;;;1.30;99.90;;;;;;5067065;28;19928;-68
2024/01/08 10:34:31;;;;;;;;;;;1.00;99.90;;;;;;5067306;28;19959;-68
2024/01/08 10:36:58;;;;;;;;;;;0.90;99.90;;;;;;5067407;28;20389;-68
2024/01/08 10:39:26;;;;;;;;;;;0.90;99.90;;;;;;5066020;28;19989;-68
2024/01/08 10:41:54;;;;;;;;;;;1.20;99.90;;;;;;5066755;28;19925;-67
2024/01/08 10:44:20;;;;;;;;;;;1.40;99.90;;;;;;5066721;28;19939;-67
2024/01/08 10:46:53;;;;;;;;;;;1.70;99.90;;;;;;5066838;28;19928;-67
2024/01/08 10:49:20;;;;;;;;;;;1.50;99.90;;;;;;5067995;28;19933;-67
2024/01/08 10:51:47;;;;;;;;;;;1.50;99.90;;;;;;5067719;28;19933;-67
2024/01/08 10:54:17;;;;;;;;;;;1.00;99.90;;;;;;5068516;28;19940;-67
2024/01/08 10:56:45;;;;;;;;;;;1.00;99.90;;;;;;5067744;28;20364;-68
2024/01/08 10:59:18;;;;;;;;;;;1.30;99.90;;;;;;5007875;28;1708685;-67
2024/01/08 11:01:45;;;;;;;;;;;1.40;99.90;;;;;;5067862;28;19932;-67
2024/01/08 11:04:12;;;;;;;;;;;1.70;99.90;;;;;;5067813;28;19932;-67
2024/01/08 11:06:41;;;;;;;;;;;1.70;99.90;;;;;;5067198;28;20476;-67
2024/01/08 11:09:17;;;;;;;;;;;1.40;99.90;;;;;;5068829;28;20588;-67
2024/01/08 11:11:44;;;;;;;;;;;1.10;99.90;;;;;;5068907;28;19940;-67
2024/01/08 11:14:13;;;;;;;;;;;1.00;99.90;;;;;;5068298;28;19932;-67
2024/01/08 11:16:41;;;;;;;;;;;1.00;99.90;;;;;;5067440;28;19931;-67
2024/01/08 11:19:27;;;;;;;;;;;1.10;99.90;;;;;;5068572;28;19986;-65
2024/01/08 11:22:08;;;;;;;;;;;1.10;99.90;;;;;;5067772;28;19960;-65
2024/01/08 11:24:35;;;;;;;;;;;0.80;99.90;;;;;;5067488;28;19924;-65
2024/01/08 11:27:02;;;;;;;;;;;0.90;99.90;;;;;;5066317;28;19933;-66
2024/01/08 11:29:28;;;;;;;;;;;0.90;99.90;;;;;;5063602;28;19955;-66
2024/01/08 11:32:12;;;;;;;;;;;0.90;99.90;;;;;;5066711;28;19928;-65
2024/01/08 11:35:00;;;;;;;;;;;1.10;99.90;;;;;;5067407;28;19928;-65
2024/01/08 11:37:29;;;;;;;;;;;1.30;99.90;;;;;;5067001;28;19928;-66
2024/01/08 11:39:55;;;;;;;;;;;1.40;99.90;;;;;;5067212;28;20357;-66
2024/01/08 11:42:22;;;;;;;;;;;1.40;99.90;;;;;;5067837;28;19924;-65
2024/01/08 11:44:50;;;;;;;;;;;1.20;99.90;;;;;;5066913;28;19936;-66
2024/01/08 11:47:18;;;;;;;;;;;1.00;99.90;;;;;;5066736;28;20611;-66
2024/01/08 11:49:45;;;;;;;;;;;1.10;99.90;;;;;;5066774;28;19932;-67
2024/01/08 11:52:12;;;;;;;;;;;1.20;99.90;;;;;;5067185;28;19928;-67
2024/01/08 11:54:39;;;;;;;;;;;1.20;99.90;;;;;;5066671;28;19985;-67
2024/01/08 11:57:07;;;;;;;;;;;1.30;99.90;;;;;;5066821;28;20015;-65
2024/01/08 11:59:34;;;;;;;;;;;1.50;99.90;;;;;;5066419;28;20391;-66
2024/01/08 12:02:13;;;;;;;;;;;1.60;99.90;;;;;;5065767;28;20229;-66
2024/01/08 12:04:41;;;;;;;;;;;1.40;99.90;;;;;;5066661;28;20008;-66
2024/01/08 12:07:10;;;;;;;;;;;1.30;99.90;;;;;;5065609;28;20345;-66
2024/01/08 12:09:36;;;;;;;;;;;1.50;99.90;;;;;;5067413;28;19932;-68
2024/01/08 12:12:03;;;;;;;;;;;1.60;99.90;;;;;;5066443;28;19985;-66
2024/01/08 12:14:31;;;;;;;;;;;1.20;99.90;;;;;;5067089;28;19925;-67
2024/01/08 12:16:58;;;;;;;;;;;1.20;99.90;;;;;;5066873;28;20345;-67
2024/01/08 12:19:34;;;;;;;;;;;1.40;99.90;;;;;;5067486;28;19974;-67
2024/01/08 12:22:01;;;;;;;;;;;1.30;99.90;;;;;;5065789;28;19928;-67
2024/01/08 12:24:28;;;;;;;;;;;1.50;99.90;;;;;;5066292;28;19940;-67
2024/01/08 12:27:00;;;;;;;;;;;1.60;99.90;;;;;;5066208;28;20382;-67
2024/01/08 12:29:27;;;;;;;;;;;1.50;99.90;;;;;;5067394;28;19975;-67
2024/01/08 12:31:56;;;;;;;;;;;1.40;99.90;;;;;;5066144;28;19924;-67
2024/01/08 12:34:22;;;;;;;;;;;1.30;99.90;;;;;;5066320;28;19932;-67
2024/01/08 12:36:49;;;;;;;;;;;1.30;99.90;;;;;;5065948;28;19977;-67
2024/01/08 12:39:16;;;;;;;;;;;1.00;99.90;;;;;;5066876;28;19966;-67
2024/01/08 12:41:44;;;;;;;;;;;0.60;99.90;;;;;;5066542;28;19931;-67
2024/01/08 12:44:11;;;;;;;;;;;0.50;99.90;;;;;;5066828;28;19925;-67
2024/01/08 12:46:37;;;;;;;;;;;0.60;99.90;;;;;;5066810;28;20416;-67
2024/01/08 12:49:04;;;;;;;;;;;1.00;99.90;;;;;;5066813;28;19998;-66
2024/01/08 12:51:30;;;;;;;;;;;1.10;99.90;;;;;;5067111;28;19925;-67
2024/01/08 12:53:57;;;;;;;;;;;0.80;99.90;;;;;;5066425;28;20001;-67
2024/01/08 12:56:25;;;;;;;;;;;0.70;99.90;;;;;;5067043;28;19978;-67
2024/01/08 12:58:51;;;;;;;;;;;0.50;99.90;;;;;;5066513;28;19970;-67
2024/01/08 13:01:18;;;;;;;;;;;0.10;99.90;;;;;;5066254;28;19931;-67
2024/01/08 13:03:44;;;;;;;;;;;-0.10;99.90;;;;;;5066271;28;19936;-67
2024/01/08 13:06:11;;;;;;;;;;;-0.30;99.90;;;;;;5066069;28;19932;-67
2024/01/08 13:08:37;;;;;;;;;;;-0.20;99.90;;;;;;5066071;28;20096;-67
2024/01/08 13:11:04;;;;;;;;;;;-0.20;99.90;;;;;;5066181;28;19939;-66
2024/01/08 13:13:31;;;;;;;;;;;0.00;99.90;;;;;;5066368;28;19925;-67
2024/01/08 13:15:58;;;;;;;;;;;0.00;99.90;;;;;;5065480;28;20379;-67
2024/01/08 13:18:24;;;;;;;;;;;-0.20;99.90;;;;;;5066746;28;19925;-66
2024/01/08 13:20:51;;;;;;;;;;;-0.20;99.90;;;;;;5065259;28;20707;-67
2024/01/08 13:23:18;;;;;;;;;;;-0.10;99.90;;;;;;5066054;28;19992;-68
2024/01/08 13:25:44;;;;;;;;;;;-0.40;99.90;;;;;;5066034;28;20038;-67
2024/01/08 13:28:11;;;;;;;;;;;-0.50;99.90;;;;;;5065655;28;19959;-67
2024/01/08 13:30:39;;;;;;;;;;;-0.60;99.90;;;;;;5065486;28;19928;-67
2024/01/08 13:33:05;;;;;;;;;;;-0.40;99.90;;;;;;5065705;28;19933;-67
2024/01/08 13:35:32;;;;;;;;;;;-0.30;99.90;;;;;;5065781;28;19956;-67
2024/01/08 13:37:59;;;;;;;;;;;-0.20;99.90;;;;;;5065640;28;19950;-67
2024/01/08 13:40:28;;;;;;;;;;;-0.30;99.90;;;;;;5066191;28;20436;-67
2024/01/08 13:42:55;;;;;;;;;;;-0.60;99.90;;;;;;5066149;28;19932;-67
2024/01/08 13:45:21;;;;;;;;;;;-0.60;99.90;;;;;;5066099;28;19936;-67
2024/01/08 13:47:50;;;;;;;;;;;-0.60;99.90;;;;;;5066477;28;19994;-67
2024/01/08 13:50:18;;;;;;;;;;;-1.10;99.90;;;;;;5066059;28;19928;-67
2024/01/08 13:52:44;;;;;;;;;;;-1.30;99.90;;;;;;5067057;28;20341;-67
2024/01/08 13:55:11;;;;;;;;;;;-1.40;99.90;;;;;;5069091;28;19939;-67
2024/01/08 13:57:37;;;;;;;;;;;-1.70;99.90;;;;;;5070730;28;19990;-67
2024/01/08 14:00:05;;;;;;;;;;;-1.80;99.90;;;;;;5069667;28;19931;-67
2024/01/08 14:02:32;;;;;;;;;;;-1.80;99.90;;;;;;5068189;28;19924;-67
2024/01/08 14:05:00;;;;;;;;;;;-1.70;99.90;;;;;;5070209;28;20387;-67
2024/01/08 14:07:26;;;;;;;;;;;-1.80;99.90;;;;;;5068232;28;19924;-67
2024/01/08 14:09:53;;;;;;;;;;;-1.90;99.90;;;;;;5068927;28;19933;-67
2024/01/08 14:12:19;;;;;;;;;;;-2.10;99.90;;;;;;5069227;28;20368;-67
2024/01/08 14:14:46;;;;;;;;;;;-2.30;99.90;;;;;;5069149;28;19978;-67
2024/01/08 14:17:13;;;;;;;;;;;-2.50;99.90;;;;;;5069114;28;19940;-67
2024/01/08 14:19:39;;;;;;;;;;;-2.70;99.90;;;;;;5069617;28;20406;-67
2024/01/08 14:22:07;;;;;;;;;;;-2.90;99.90;;;;;;5068666;28;19932;-67